Jennifer C — WDI8828 — position and weather

sailwx.info

Track history (hours):
 
Tides and Currents Weather Stations Pressure Air Temp Water Temp Dewpoint Dewpoint Depression Visibility Wind Speed Wind Dir Waves Ship Positions

Jennifer C

Owner: Cross Sound Ferry Services, Inc, New London, CT. More information available from US FCC via Universal Licensing System and Coast Guard Vessel Documentation Center.

Last reported at 2018-Jan-22 02:30 UTC. Time now 2018-Jan-22 02:36 UTC.
Position N 41°15' W 072°08'.

Length 63 m.

Type: Passenger vessel. MMSI: 367742540.

Date/timePositionNaut miles runAvg speedWind from/ knotsBaromVisibWave heightAir tempDewpointWater temp
2018-Jan-22 02:30N 41°15' W 072°08'611.9
2018-Jan-22 02:00N 41°11' W 072°13'0 0.3
2018-Jan-22 01:06N 41°11' W 072°14'212.2
2018-Jan-22 00:58N 41°12' W 072°12'7 3.2
2018-Jan-21 22:52N 41°16' W 072°06'513.9
2018-Jan-21 22:30N 41°13' W 072°11'2 1.2
2018-Jan-21 21:04N 41°12' W 072°13'110.6
2018-Jan-21 20:59N 41°13' W 072°12'511.1
2018-Jan-21 20:30N 41°16' W 072°07'2 0.9
2018-Jan-21 18:44N 41°15' W 072°08'312.5
2018-Jan-21 18:28N 41°13' W 072°11'3 1.9
2018-Jan-21 17:01N 41°10' W 072°13'212.6
2018-Jan-21 16:53N 41°12' W 072°12'613.7
2018-Jan-21 16:27N 41°16' W 072°07'2 1.7
2018-Jan-21 15:07N 41°18' W 072°05'211.5
2018-Jan-21 14:57N 41°16' W 072°07'511.6
2018-Jan-21 14:30N 41°13' W 072°11'3 2.5
2018-Jan-21 13:11N 41°10' W 072°13'211.1
2018-Jan-21 13:00N 41°12' W 072°13'612.5
2018-Jan-21 12:30N 41°16' W 072°07'2 0.1
2018-Jan-20 23:55N 41°17' W 072°05'513.2
2018-Jan-20 23:30N 41°13' W 072°10'5 5.8
2018-Jan-20 22:37N 41°09' W 072°14'0 1.1
2018-Jan-20 22:22N 41°09' W 072°14'3 9.8
2018-Jan-20 22:00N 41°12' W 072°12'510.7
2018-Jan-20 21:30N 41°16' W 072°07'2 1.2
2018-Jan-20 19:57N 41°17' W 072°05'613.4
2018-Jan-20 19:30N 41°13' W 072°11'3 2.7
2018-Jan-20 18:17N 41°11' W 072°14'410.4
2018-Jan-20 17:54N 41°13' W 072°10'3 1.5
2018-Jan-20 15:51N 41°15' W 072°07'411.5
2018-Jan-20 15:30N 41°13' W 072°11'3 2.7
2018-Jan-20 14:15N 41°10' W 072°13'2 8.8
2018-Jan-20 14:00N 41°12' W 072°13'3 0.3
2018-Jan-20 01:36N 41°14' W 072°09'212.2
2018-Jan-20 01:26N 41°12' W 072°11'1 0.7
2018-Jan-19 23:52N 41°13' W 072°11'4 1.8
2018-Jan-19 21:45N 41°15' W 072°07'414.4
2018-Jan-19 21:27N 41°13' W 072°11'1 0.5
2018-Jan-19 19:54N 41°13' W 072°11'2 1.1
2018-Jan-19 17:44N 41°15' W 072°08'312.8
2018-Jan-19 17:28N 41°12' W 072°11'1 0.7
2018-Jan-19 15:50N 41°14' W 072°11'3 1.5
2018-Jan-19 13:48N 41°15' W 072°08'411.7
2018-Jan-19 13:25N 41°12' W 072°12'1 0.1
2018-Jan-19 01:54N 41°12' W 072°13'6 2.8
2018-Jan-18 23:53N 41°15' W 072°07'512.0
2018-Jan-18 23:30N 41°12' W 072°11'2 0.6
2018-Jan-18 19:34N 41°14' W 072°09'214.7
2018-Jan-18 19:24N 41°12' W 072°11'1 0.9
2018-Jan-18 18:01N 41°12' W 072°13'211.3
2018-Jan-18 17:51N 41°13' W 072°11'3 1.6
2018-Jan-18 15:47N 41°15' W 072°08'411.8
2018-Jan-18 15:27N 41°12' W 072°11'1 1.0
2018-Jan-18 13:54N 41°12' W 072°13'5 0.4
2018-Jan-17 23:52N 41°15' W 072°08'  
2018-Jan-12 13:37N 41°14' W 072°10'213.5
2018-Jan-12 13:30N 41°12' W 072°11'  
Track history (hours):
 
Tides and Currents Weather Stations Pressure Air Temp Water Temp Dewpoint Dewpoint Depression Visibility Wind Speed Wind Dir Waves Ship Positions

Jennifer C

Owner: Cross Sound Ferry Services, Inc, New London, CT. More information available from US FCC via Universal Licensing System and Coast Guard Vessel Documentation Center.

Last reported at 2018-Jan-22 02:30 UTC. Time now 2018-Jan-22 02:37 UTC.
Position N 41°15' W 072°08'.

Length 63 m.

Type: Passenger vessel. MMSI: 367742540.

Date/timePositionNaut miles runAvg speedWind from/ knotsBaromVisibWave heightAir tempDewpointWater temp
2018-Jan-22 02:30N 41°15' W 072°08'611.9
2018-Jan-22 02:00N 41°11' W 072°13'0 0.3
2018-Jan-22 01:06N 41°11' W 072°14'212.2
2018-Jan-22 00:58N 41°12' W 072°12'7 3.2
2018-Jan-21 22:52N 41°16' W 072°06'513.9
2018-Jan-21 22:30N 41°13' W 072°11'2 1.2
2018-Jan-21 21:04N 41°12' W 072°13'110.6
2018-Jan-21 20:59N 41°13' W 072°12'511.1
2018-Jan-21 20:30N 41°16' W 072°07'2 0.9
2018-Jan-21 18:44N 41°15' W 072°08'312.5
2018-Jan-21 18:28N 41°13' W 072°11'3 1.9
2018-Jan-21 17:01N 41°10' W 072°13'212.6
2018-Jan-21 16:53N 41°12' W 072°12'613.7
2018-Jan-21 16:27N 41°16' W 072°07'2 1.7
2018-Jan-21 15:07N 41°18' W 072°05'211.5
2018-Jan-21 14:57N 41°16' W 072°07'511.6
2018-Jan-21 14:30N 41°13' W 072°11'3 2.5
2018-Jan-21 13:11N 41°10' W 072°13'211.1
2018-Jan-21 13:00N 41°12' W 072°13'612.5
2018-Jan-21 12:30N 41°16' W 072°07'2 0.1
2018-Jan-20 23:55N 41°17' W 072°05'513.2
2018-Jan-20 23:30N 41°13' W 072°10'5 5.8
2018-Jan-20 22:37N 41°09' W 072°14'0 1.1
2018-Jan-20 22:22N 41°09' W 072°14'3 9.8
2018-Jan-20 22:00N 41°12' W 072°12'510.7
2018-Jan-20 21:30N 41°16' W 072°07'2 1.2
2018-Jan-20 19:57N 41°17' W 072°05'613.4
2018-Jan-20 19:30N 41°13' W 072°11'3 2.7
2018-Jan-20 18:17N 41°11' W 072°14'410.4
2018-Jan-20 17:54N 41°13' W 072°10'3 1.5
2018-Jan-20 15:51N 41°15' W 072°07'411.5
2018-Jan-20 15:30N 41°13' W 072°11'3 2.7
2018-Jan-20 14:15N 41°10' W 072°13'2 8.8
2018-Jan-20 14:00N 41°12' W 072°13'3 0.3
2018-Jan-20 01:36N 41°14' W 072°09'212.2
2018-Jan-20 01:26N 41°12' W 072°11'1 0.7
2018-Jan-19 23:52N 41°13' W 072°11'4 1.8
2018-Jan-19 21:45N 41°15' W 072°07'414.4
2018-Jan-19 21:27N 41°13' W 072°11'1 0.5
2018-Jan-19 19:54N 41°13' W 072°11'2 1.1
2018-Jan-19 17:44N 41°15' W 072°08'312.8
2018-Jan-19 17:28N 41°12' W 072°11'1 0.7
2018-Jan-19 15:50N 41°14' W 072°11'3 1.5
2018-Jan-19 13:48N 41°15' W 072°08'411.7
2018-Jan-19 13:25N 41°12' W 072°12'1 0.1
2018-Jan-19 01:54N 41°12' W 072°13'6 2.8
2018-Jan-18 23:53N 41°15' W 072°07'512.0
2018-Jan-18 23:30N 41°12' W 072°11'2 0.6
2018-Jan-18 19:34N 41°14' W 072°09'214.7
2018-Jan-18 19:24N 41°12' W 072°11'1 0.9
2018-Jan-18 18:01N 41°12' W 072°13'211.3
2018-Jan-18 17:51N 41°13' W 072°11'3 1.6
2018-Jan-18 15:47N 41°15' W 072°08'411.8
2018-Jan-18 15:27N 41°12' W 072°11'1 1.0
2018-Jan-18 13:54N 41°12' W 072°13'5 0.4
2018-Jan-17 23:52N 41°15' W 072°08'  
2018-Jan-12 13:37N 41°14' W 072°10'213.5
2018-Jan-12 13:30N 41°12' W 072°11'  

Dump ship's entire track history